sensor_id;sensor_type;location;lat;lon;timestamp;P1;durP1;ratioP1;P2;durP2;ratioP2
2111;SDS011;1062;52.538;13.400;2023-05-07T00:01:38;14.73;;;12.00;;
2111;SDS011;1062;52.538;13.400;2023-05-07T00:04:05;15.93;;;11.17;;
2111;SDS011;1062;52.538;13.400;2023-05-07T00:06:31;13.57;;;12.27;;
2111;SDS011;1062;52.538;13.400;2023-05-07T00:08:57;11.60;;;10.40;;
2111;SDS011;1062;52.538;13.400;2023-05-07T00:11:24;12.60;;;11.00;;
2111;SDS011;1062;52.538;13.400;2023-05-07T00:13:50;13.33;;;10.33;;
2111;SDS011;1062;52.538;13.400;2023-05-07T00:16:16;13.37;;;11.03;;
2111;SDS011;1062;52.538;13.400;2023-05-07T00:18:41;13.43;;;11.10;;
2111;SDS011;1062;52.538;13.400;2023-05-07T00:21:07;13.90;;;11.10;;
2111;SDS011;1062;52.538;13.400;2023-05-07T00:23:33;12.40;;;11.00;;
2111;SDS011;1062;52.538;13.400;2023-05-07T00:25:58;16.93;;;11.70;;
2111;SDS011;1062;52.538;13.400;2023-05-07T00:28:24;13.00;;;11.30;;
2111;SDS011;1062;52.538;13.400;2023-05-07T00:30:49;12.97;;;10.97;;
2111;SDS011;1062;52.538;13.400;2023-05-07T00:33:15;11.60;;;10.53;;
2111;SDS011;1062;52.538;13.400;2023-05-07T00:35:41;16.97;;;10.80;;
2111;SDS011;1062;52.538;13.400;2023-05-07T00:38:07;11.53;;;10.10;;
2111;SDS011;1062;52.538;13.400;2023-05-07T00:40:33;19.90;;;12.47;;
2111;SDS011;1062;52.538;13.400;2023-05-07T00:42:58;13.93;;;12.57;;
2111;SDS011;1062;52.538;13.400;2023-05-07T00:45:27;12.93;;;9.77;;
2111;SDS011;1062;52.538;13.400;2023-05-07T00:47:54;15.40;;;11.57;;
2111;SDS011;1062;52.538;13.400;2023-05-07T00:50:20;11.87;;;10.77;;
2111;SDS011;1062;52.538;13.400;2023-05-07T00:52:47;12.63;;;11.10;;
2111;SDS011;1062;52.538;13.400;2023-05-07T00:55:13;13.23;;;10.07;;
2111;SDS011;1062;52.538;13.400;2023-05-07T00:57:39;14.13;;;11.50;;
2111;SDS011;1062;52.538;13.400;2023-05-07T01:00:06;12.53;;;11.23;;
2111;SDS011;1062;52.538;13.400;2023-05-07T01:02:40;11.53;;;10.40;;
2111;SDS011;1062;52.538;13.400;2023-05-07T01:05:07;16.43;;;11.03;;
2111;SDS011;1062;52.538;13.400;2023-05-07T01:07:36;13.37;;;10.80;;
2111;SDS011;1062;52.538;13.400;2023-05-07T01:10:04;13.57;;;11.90;;
2111;SDS011;1062;52.538;13.400;2023-05-07T01:12:31;11.97;;;10.73;;
2111;SDS011;1062;52.538;13.400;2023-05-07T01:14:57;11.67;;;10.43;;
2111;SDS011;1062;52.538;13.400;2023-05-07T01:17:23;13.03;;;11.20;;
2111;SDS011;1062;52.538;13.400;2023-05-07T01:19:49;10.90;;;9.80;;
2111;SDS011;1062;52.538;13.400;2023-05-07T01:22:15;13.70;;;11.60;;
2111;SDS011;1062;52.538;13.400;2023-05-07T01:24:43;13.30;;;9.63;;
2111;SDS011;1062;52.538;13.400;2023-05-07T01:27:09;11.60;;;10.47;;
2111;SDS011;1062;52.538;13.400;2023-05-07T01:29:34;12.07;;;10.87;;
2111;SDS011;1062;52.538;13.400;2023-05-07T01:32:00;12.43;;;10.00;;
2111;SDS011;1062;52.538;13.400;2023-05-07T01:34:28;12.90;;;9.90;;
2111;SDS011;1062;52.538;13.400;2023-05-07T01:36:57;12.60;;;11.10;;
2111;SDS011;1062;52.538;13.400;2023-05-07T01:39:24;13.50;;;10.17;;
2111;SDS011;1062;52.538;13.400;2023-05-07T01:41:51;13.20;;;9.97;;
2111;SDS011;1062;52.538;13.400;2023-05-07T01:44:19;12.37;;;11.10;;
2111;SDS011;1062;52.538;13.400;2023-05-07T01:46:45;11.87;;;10.67;;
2111;SDS011;1062;52.538;13.400;2023-05-07T01:49:12;12.20;;;10.47;;
2111;SDS011;1062;52.538;13.400;2023-05-07T01:51:38;12.33;;;9.83;;
2111;SDS011;1062;52.538;13.400;2023-05-07T01:54:04;10.87;;;9.60;;
2111;SDS011;1062;52.538;13.400;2023-05-07T01:56:31;11.00;;;9.10;;
2111;SDS011;1062;52.538;13.400;2023-05-07T01:58:57;10.97;;;9.87;;
2111;SDS011;1062;52.538;13.400;2023-05-07T02:01:22;11.97;;;9.77;;
2111;SDS011;1062;52.538;13.400;2023-05-07T02:03:48;11.00;;;9.90;;
2111;SDS011;1062;52.538;13.400;2023-05-07T02:06:14;14.70;;;10.30;;
2111;SDS011;1062;52.538;13.400;2023-05-07T02:08:40;12.80;;;10.63;;
2111;SDS011;1062;52.538;13.400;2023-05-07T02:11:05;17.97;;;10.80;;
2111;SDS011;1062;52.538;13.400;2023-05-07T02:13:32;14.73;;;10.47;;
2111;SDS011;1062;52.538;13.400;2023-05-07T02:15:59;10.13;;;9.03;;
2111;SDS011;1062;52.538;13.400;2023-05-07T02:18:25;14.73;;;10.10;;
2111;SDS011;1062;52.538;13.400;2023-05-07T02:20:50;13.10;;;10.00;;
2111;SDS011;1062;52.538;13.400;2023-05-07T02:23:16;11.07;;;9.10;;
2111;SDS011;1062;52.538;13.400;2023-05-07T02:25:41;11.00;;;9.37;;
2111;SDS011;1062;52.538;13.400;2023-05-07T02:28:07;12.10;;;9.97;;
2111;SDS011;1062;52.538;13.400;2023-05-07T02:30:33;12.77;;;9.43;;
2111;SDS011;1062;52.538;13.400;2023-05-07T02:32:58;13.47;;;8.93;;
2111;SDS011;1062;52.538;13.400;2023-05-07T02:35:24;11.63;;;9.87;;
2111;SDS011;1062;52.538;13.400;2023-05-07T02:37:51;11.37;;;9.80;;
2111;SDS011;1062;52.538;13.400;2023-05-07T02:40:16;12.27;;;10.23;;
2111;SDS011;1062;52.538;13.400;2023-05-07T02:42:42;12.17;;;10.97;;
2111;SDS011;1062;52.538;13.400;2023-05-07T02:45:07;13.87;;;9.80;;
2111;SDS011;1062;52.538;13.400;2023-05-07T02:47:34;13.87;;;9.53;;
2111;SDS011;1062;52.538;13.400;2023-05-07T02:49:59;10.80;;;9.27;;
2111;SDS011;1062;52.538;13.400;2023-05-07T02:52:25;10.33;;;9.30;;
2111;SDS011;1062;52.538;13.400;2023-05-07T02:54:51;19.70;;;10.03;;
2111;SDS011;1062;52.538;13.400;2023-05-07T02:57:16;10.87;;;9.37;;
2111;SDS011;1062;52.538;13.400;2023-05-07T02:59:42;10.77;;;9.70;;
2111;SDS011;1062;52.538;13.400;2023-05-07T03:02:08;11.73;;;10.30;;
2111;SDS011;1062;52.538;13.400;2023-05-07T03:04:34;9.20;;;8.17;;
2111;SDS011;1062;52.538;13.400;2023-05-07T03:06:59;11.50;;;9.27;;
2111;SDS011;1062;52.538;13.400;2023-05-07T03:09:25;12.00;;;8.87;;
2111;SDS011;1062;52.538;13.400;2023-05-07T03:11:51;10.40;;;8.93;;
2111;SDS011;1062;52.538;13.400;2023-05-07T03:14:16;12.57;;;9.70;;
2111;SDS011;1062;52.538;13.400;2023-05-07T03:16:42;8.27;;;7.43;;
2111;SDS011;1062;52.538;13.400;2023-05-07T03:19:08;9.47;;;8.53;;
2111;SDS011;1062;52.538;13.400;2023-05-07T03:21:33;12.00;;;9.50;;
2111;SDS011;1062;52.538;13.400;2023-05-07T03:23:59;10.70;;;9.70;;
2111;SDS011;1062;52.538;13.400;2023-05-07T03:26:25;9.33;;;8.33;;
2111;SDS011;1062;52.538;13.400;2023-05-07T03:28:51;9.67;;;8.47;;
2111;SDS011;1062;52.538;13.400;2023-05-07T03:31:17;12.47;;;9.17;;
2111;SDS011;1062;52.538;13.400;2023-05-07T03:33:50;9.70;;;8.67;;
2111;SDS011;1062;52.538;13.400;2023-05-07T03:36:20;9.70;;;8.70;;
2111;SDS011;1062;52.538;13.400;2023-05-07T03:38:46;8.97;;;8.00;;
2111;SDS011;1062;52.538;13.400;2023-05-07T03:41:12;10.60;;;8.43;;
2111;SDS011;1062;52.538;13.400;2023-05-07T03:43:38;10.50;;;9.17;;
2111;SDS011;1062;52.538;13.400;2023-05-07T03:46:04;11.07;;;9.10;;
2111;SDS011;1062;52.538;13.400;2023-05-07T03:48:29;10.00;;;9.00;;
2111;SDS011;1062;52.538;13.400;2023-05-07T03:50:55;9.97;;;8.23;;
2111;SDS011;1062;52.538;13.400;2023-05-07T03:53:22;11.87;;;9.40;;
2111;SDS011;1062;52.538;13.400;2023-05-07T03:55:48;8.93;;;7.77;;
2111;SDS011;1062;52.538;13.400;2023-05-07T03:58:13;10.10;;;8.90;;
2111;SDS011;1062;52.538;13.400;2023-05-07T04:00:39;10.03;;;7.90;;
2111;SDS011;1062;52.538;13.400;2023-05-07T04:03:05;12.30;;;9.10;;
2111;SDS011;1062;52.538;13.400;2023-05-07T04:05:31;8.13;;;7.30;;
2111;SDS011;1062;52.538;13.400;2023-05-07T04:07:59;8.90;;;7.70;;
2111;SDS011;1062;52.538;13.400;2023-05-07T04:10:25;10.93;;;8.80;;
2111;SDS011;1062;52.538;13.400;2023-05-07T04:12:51;12.37;;;9.33;;
2111;SDS011;1062;52.538;13.400;2023-05-07T04:15:16;9.83;;;8.80;;
2111;SDS011;1062;52.538;13.400;2023-05-07T04:17:42;9.47;;;8.47;;
2111;SDS011;1062;52.538;13.400;2023-05-07T04:20:13;11.33;;;8.43;;
2111;SDS011;1062;52.538;13.400;2023-05-07T04:22:40;9.97;;;8.17;;
2111;SDS011;1062;52.538;13.400;2023-05-07T04:25:06;9.20;;;7.97;;
2111;SDS011;1062;52.538;13.400;2023-05-07T04:27:34;9.00;;;7.70;;
2111;SDS011;1062;52.538;13.400;2023-05-07T04:29:59;9.47;;;7.37;;
2111;SDS011;1062;52.538;13.400;2023-05-07T04:32:25;9.73;;;7.87;;
2111;SDS011;1062;52.538;13.400;2023-05-07T04:34:51;8.57;;;7.67;;
2111;SDS011;1062;52.538;13.400;2023-05-07T04:37:17;11.90;;;7.37;;
2111;SDS011;1062;52.538;13.400;2023-05-07T04:39:42;9.67;;;7.70;;
2111;SDS011;1062;52.538;13.400;2023-05-07T04:42:08;8.40;;;7.37;;
2111;SDS011;1062;52.538;13.400;2023-05-07T04:44:34;8.00;;;7.27;;
2111;SDS011;1062;52.538;13.400;2023-05-07T04:47:00;6.70;;;6.10;;
2111;SDS011;1062;52.538;13.400;2023-05-07T04:49:25;8.93;;;7.53;;
2111;SDS011;1062;52.538;13.400;2023-05-07T04:51:51;8.40;;;6.60;;
2111;SDS011;1062;52.538;13.400;2023-05-07T04:54:17;8.40;;;7.10;;
2111;SDS011;1062;52.538;13.400;2023-05-07T04:56:42;6.90;;;6.00;;
2111;SDS011;1062;52.538;13.400;2023-05-07T04:59:08;10.43;;;6.47;;
2111;SDS011;1062;52.538;13.400;2023-05-07T05:01:33;7.33;;;6.57;;
2111;SDS011;1062;52.538;13.400;2023-05-07T05:03:59;6.50;;;5.60;;
2111;SDS011;1062;52.538;13.400;2023-05-07T05:06:25;7.20;;;6.10;;
2111;SDS011;1062;52.538;13.400;2023-05-07T05:08:51;7.37;;;6.67;;
2111;SDS011;1062;52.538;13.400;2023-05-07T05:11:17;6.50;;;5.80;;
2111;SDS011;1062;52.538;13.400;2023-05-07T05:13:42;9.90;;;7.23;;
2111;SDS011;1062;52.538;13.400;2023-05-07T05:16:08;6.37;;;5.77;;
2111;SDS011;1062;52.538;13.400;2023-05-07T05:18:34;6.93;;;5.53;;
2111;SDS011;1062;52.538;13.400;2023-05-07T05:20:59;7.37;;;6.40;;
2111;SDS011;1062;52.538;13.400;2023-05-07T05:23:25;9.50;;;6.17;;
2111;SDS011;1062;52.538;13.400;2023-05-07T05:25:55;10.00;;;6.80;;
2111;SDS011;1062;52.538;13.400;2023-05-07T05:28:22;6.87;;;6.03;;
2111;SDS011;1062;52.538;13.400;2023-05-07T05:30:48;7.03;;;6.33;;
2111;SDS011;1062;52.538;13.400;2023-05-07T05:33:14;7.20;;;5.40;;
2111;SDS011;1062;52.538;13.400;2023-05-07T05:35:39;9.27;;;6.23;;
2111;SDS011;1062;52.538;13.400;2023-05-07T05:38:05;9.43;;;6.90;;
2111;SDS011;1062;52.538;13.400;2023-05-07T05:40:31;7.40;;;6.67;;
2111;SDS011;1062;52.538;13.400;2023-05-07T05:42:57;8.30;;;6.33;;
2111;SDS011;1062;52.538;13.400;2023-05-07T05:45:22;7.30;;;6.50;;
2111;SDS011;1062;52.538;13.400;2023-05-07T05:47:48;7.33;;;6.30;;
2111;SDS011;1062;52.538;13.400;2023-05-07T05:50:14;8.00;;;7.20;;
2111;SDS011;1062;52.538;13.400;2023-05-07T05:52:39;8.27;;;5.63;;
2111;SDS011;1062;52.538;13.400;2023-05-07T05:55:05;9.33;;;7.50;;
2111;SDS011;1062;52.538;13.400;2023-05-07T05:57:31;7.60;;;6.03;;
2111;SDS011;1062;52.538;13.400;2023-05-07T05:59:57;6.53;;;5.70;;
2111;SDS011;1062;52.538;13.400;2023-05-07T06:02:23;7.40;;;5.90;;
2111;SDS011;1062;52.538;13.400;2023-05-07T06:04:48;5.43;;;4.93;;
2111;SDS011;1062;52.538;13.400;2023-05-07T06:07:14;9.03;;;6.40;;
2111;SDS011;1062;52.538;13.400;2023-05-07T06:09:40;7.57;;;6.07;;
2111;SDS011;1062;52.538;13.400;2023-05-07T06:12:05;6.23;;;5.40;;
2111;SDS011;1062;52.538;13.400;2023-05-07T06:14:31;9.23;;;6.53;;
2111;SDS011;1062;52.538;13.400;2023-05-07T06:16:57;6.67;;;6.07;;
2111;SDS011;1062;52.538;13.400;2023-05-07T06:19:22;8.30;;;6.27;;
2111;SDS011;1062;52.538;13.400;2023-05-07T06:21:49;6.13;;;5.07;;
2111;SDS011;1062;52.538;13.400;2023-05-07T06:24:15;7.00;;;5.80;;
2111;SDS011;1062;52.538;13.400;2023-05-07T06:26:40;6.73;;;6.13;;
2111;SDS011;1062;52.538;13.400;2023-05-07T06:29:06;7.47;;;5.20;;
2111;SDS011;1062;52.538;13.400;2023-05-07T06:31:32;13.97;;;6.47;;
2111;SDS011;1062;52.538;13.400;2023-05-07T06:33:57;6.90;;;5.77;;
2111;SDS011;1062;52.538;13.400;2023-05-07T06:36:24;9.13;;;6.67;;
2111;SDS011;1062;52.538;13.400;2023-05-07T06:38:49;9.47;;;6.47;;
2111;SDS011;1062;52.538;13.400;2023-05-07T06:41:15;6.23;;;5.63;;
2111;SDS011;1062;52.538;13.400;2023-05-07T06:43:41;6.97;;;5.77;;
2111;SDS011;1062;52.538;13.400;2023-05-07T06:46:06;6.20;;;5.40;;
2111;SDS011;1062;52.538;13.400;2023-05-07T06:48:32;6.47;;;5.97;;
2111;SDS011;1062;52.538;13.400;2023-05-07T06:50:57;7.43;;;6.53;;
2111;SDS011;1062;52.538;13.400;2023-05-07T06:53:23;5.13;;;4.63;;
2111;SDS011;1062;52.538;13.400;2023-05-07T06:55:49;7.10;;;5.50;;
2111;SDS011;1062;52.538;13.400;2023-05-07T06:58:15;5.50;;;5.00;;
2111;SDS011;1062;52.538;13.400;2023-05-07T07:00:40;5.20;;;4.80;;
2111;SDS011;1062;52.538;13.400;2023-05-07T07:03:06;5.03;;;4.50;;
2111;SDS011;1062;52.538;13.400;2023-05-07T07:05:32;5.73;;;4.70;;
2111;SDS011;1062;52.538;13.400;2023-05-07T07:07:57;5.10;;;4.60;;
2111;SDS011;1062;52.538;13.400;2023-05-07T07:10:23;5.57;;;5.10;;
2111;SDS011;1062;52.538;13.400;2023-05-07T07:12:49;5.17;;;4.67;;
2111;SDS011;1062;52.538;13.400;2023-05-07T07:15:15;3.50;;;3.20;;
2111;SDS011;1062;52.538;13.400;2023-05-07T07:17:41;4.47;;;4.07;;
2111;SDS011;1062;52.538;13.400;2023-05-07T07:20:06;3.90;;;3.50;;
2111;SDS011;1062;52.538;13.400;2023-05-07T07:22:32;4.40;;;4.07;;
2111;SDS011;1062;52.538;13.400;2023-05-07T07:24:58;3.70;;;3.40;;
2111;SDS011;1062;52.538;13.400;2023-05-07T07:27:24;3.70;;;3.07;;
2111;SDS011;1062;52.538;13.400;2023-05-07T07:29:50;3.20;;;2.70;;
2111;SDS011;1062;52.538;13.400;2023-05-07T07:32:15;2.80;;;2.60;;
2111;SDS011;1062;52.538;13.400;2023-05-07T07:34:41;3.20;;;2.77;;
2111;SDS011;1062;52.538;13.400;2023-05-07T07:37:06;4.90;;;2.90;;
2111;SDS011;1062;52.538;13.400;2023-05-07T07:39:32;2.80;;;2.60;;
2111;SDS011;1062;52.538;13.400;2023-05-07T07:41:58;3.67;;;2.70;;
2111;SDS011;1062;52.538;13.400;2023-05-07T07:44:24;5.50;;;2.90;;
2111;SDS011;1062;52.538;13.400;2023-05-07T07:46:50;3.23;;;2.93;;
2111;SDS011;1062;52.538;13.400;2023-05-07T07:49:18;3.07;;;2.77;;
2111;SDS011;1062;52.538;13.400;2023-05-07T07:51:43;3.07;;;2.87;;
2111;SDS011;1062;52.538;13.400;2023-05-07T07:54:09;2.80;;;2.60;;
2111;SDS011;1062;52.538;13.400;2023-05-07T07:56:35;3.33;;;3.13;;
2111;SDS011;1062;52.538;13.400;2023-05-07T07:59:00;3.90;;;2.90;;
2111;SDS011;1062;52.538;13.400;2023-05-07T08:01:26;2.70;;;2.50;;
2111;SDS011;1062;52.538;13.400;2023-05-07T08:03:53;3.43;;;2.80;;
2111;SDS011;1062;52.538;13.400;2023-05-07T08:06:19;2.73;;;2.50;;
2111;SDS011;1062;52.538;13.400;2023-05-07T08:08:44;4.07;;;2.90;;
2111;SDS011;1062;52.538;13.400;2023-05-07T08:11:10;2.63;;;2.40;;
2111;SDS011;1062;52.538;13.400;2023-05-07T08:13:36;4.10;;;2.70;;
2111;SDS011;1062;52.538;13.400;2023-05-07T08:16:03;4.67;;;2.50;;
2111;SDS011;1062;52.538;13.400;2023-05-07T08:18:29;2.73;;;2.53;;
2111;SDS011;1062;52.538;13.400;2023-05-07T08:20:54;2.60;;;2.40;;
2111;SDS011;1062;52.538;13.400;2023-05-07T08:23:20;2.43;;;2.23;;
2111;SDS011;1062;52.538;13.400;2023-05-07T08:25:46;2.63;;;2.20;;
2111;SDS011;1062;52.538;13.400;2023-05-07T08:28:13;3.37;;;2.73;;
2111;SDS011;1062;52.538;13.400;2023-05-07T08:30:38;2.70;;;2.50;;
2111;SDS011;1062;52.538;13.400;2023-05-07T08:33:04;3.70;;;2.70;;
2111;SDS011;1062;52.538;13.400;2023-05-07T08:35:29;2.43;;;2.20;;
2111;SDS011;1062;52.538;13.400;2023-05-07T08:37:55;2.57;;;2.23;;
2111;SDS011;1062;52.538;13.400;2023-05-07T08:40:25;2.37;;;2.17;;
2111;SDS011;1062;52.538;13.400;2023-05-07T08:42:54;2.50;;;2.30;;
2111;SDS011;1062;52.538;13.400;2023-05-07T08:45:21;2.97;;;2.67;;
2111;SDS011;1062;52.538;13.400;2023-05-07T08:47:51;3.13;;;2.60;;
2111;SDS011;1062;52.538;13.400;2023-05-07T08:50:19;3.30;;;2.70;;
2111;SDS011;1062;52.538;13.400;2023-05-07T08:52:46;2.57;;;2.37;;
2111;SDS011;1062;52.538;13.400;2023-05-07T08:55:12;4.03;;;2.80;;
2111;SDS011;1062;52.538;13.400;2023-05-07T08:57:38;3.07;;;2.60;;
2111;SDS011;1062;52.538;13.400;2023-05-07T09:00:04;2.87;;;2.67;;
2111;SDS011;1062;52.538;13.400;2023-05-07T09:02:32;3.30;;;2.30;;
2111;SDS011;1062;52.538;13.400;2023-05-07T09:04:58;2.90;;;2.60;;
2111;SDS011;1062;52.538;13.400;2023-05-07T09:07:23;2.83;;;2.60;;
2111;SDS011;1062;52.538;13.400;2023-05-07T09:09:50;3.20;;;2.87;;
2111;SDS011;1062;52.538;13.400;2023-05-07T09:12:17;2.90;;;2.27;;
2111;SDS011;1062;52.538;13.400;2023-05-07T09:14:43;2.57;;;2.30;;
2111;SDS011;1062;52.538;13.400;2023-05-07T09:17:10;3.37;;;2.13;;
2111;SDS011;1062;52.538;13.400;2023-05-07T09:19:36;1.80;;;1.70;;
2111;SDS011;1062;52.538;13.400;2023-05-07T09:22:02;2.97;;;2.70;;
2111;SDS011;1062;52.538;13.400;2023-05-07T09:24:30;3.40;;;2.40;;
2111;SDS011;1062;52.538;13.400;2023-05-07T09:27:00;2.73;;;2.43;;
2111;SDS011;1062;52.538;13.400;2023-05-07T09:29:27;3.30;;;2.77;;
2111;SDS011;1062;52.538;13.400;2023-05-07T09:31:55;4.90;;;2.67;;
2111;SDS011;1062;52.538;13.400;2023-05-07T09:34:21;3.13;;;2.50;;
2111;SDS011;1062;52.538;13.400;2023-05-07T09:36:47;2.40;;;2.20;;
2111;SDS011;1062;52.538;13.400;2023-05-07T09:39:12;5.30;;;2.40;;
2111;SDS011;1062;52.538;13.400;2023-05-07T09:41:44;4.20;;;2.47;;
2111;SDS011;1062;52.538;13.400;2023-05-07T09:44:14;3.30;;;2.80;;
2111;SDS011;1062;52.538;13.400;2023-05-07T09:46:41;4.07;;;3.57;;
2111;SDS011;1062;52.538;13.400;2023-05-07T09:49:12;8.73;;;2.77;;
2111;SDS011;1062;52.538;13.400;2023-05-07T09:51:48;2.60;;;2.40;;
2111;SDS011;1062;52.538;13.400;2023-05-07T09:54:15;3.73;;;2.90;;
2111;SDS011;1062;52.538;13.400;2023-05-07T09:56:44;3.90;;;2.70;;
2111;SDS011;1062;52.538;13.400;2023-05-07T09:59:12;3.17;;;2.63;;
2111;SDS011;1062;52.538;13.400;2023-05-07T10:01:40;4.00;;;2.40;;
2111;SDS011;1062;52.538;13.400;2023-05-07T10:04:07;3.10;;;2.27;;
2111;SDS011;1062;52.538;13.400;2023-05-07T10:06:34;2.97;;;1.90;;
2111;SDS011;1062;52.538;13.400;2023-05-07T10:09:00;2.80;;;2.33;;
2111;SDS011;1062;52.538;13.400;2023-05-07T10:11:27;1.80;;;1.40;;
2111;SDS011;1062;52.538;13.400;2023-05-07T10:13:53;1.70;;;1.57;;
2111;SDS011;1062;52.538;13.400;2023-05-07T10:16:20;2.63;;;2.07;;
2111;SDS011;1062;52.538;13.400;2023-05-07T10:18:46;3.37;;;2.10;;
2111;SDS011;1062;52.538;13.400;2023-05-07T10:21:17;2.50;;;1.70;;
2111;SDS011;1062;52.538;13.400;2023-05-07T10:23:48;1.70;;;1.60;;
2111;SDS011;1062;52.538;13.400;2023-05-07T10:26:15;1.50;;;1.40;;
2111;SDS011;1062;52.538;13.400;2023-05-07T10:28:50;1.90;;;1.80;;
2111;SDS011;1062;52.538;13.400;2023-05-07T10:34:07;2.97;;;1.90;;
2111;SDS011;1062;52.538;13.400;2023-05-07T10:36:35;1.53;;;1.43;;
2111;SDS011;1062;52.538;13.400;2023-05-07T10:39:01;3.70;;;1.57;;
2111;SDS011;1062;52.538;13.400;2023-05-07T10:41:27;2.73;;;2.53;;
2111;SDS011;1062;52.538;13.400;2023-05-07T10:43:53;1.70;;;1.60;;
2111;SDS011;1062;52.538;13.400;2023-05-07T10:46:19;2.03;;;1.60;;
2111;SDS011;1062;52.538;13.400;2023-05-07T10:51:28;2.37;;;1.40;;
2111;SDS011;1062;52.538;13.400;2023-05-07T10:56:35;2.07;;;1.73;;
2111;SDS011;1062;52.538;13.400;2023-05-07T11:02:04;2.37;;;2.17;;
2111;SDS011;1062;52.538;13.400;2023-05-07T11:04:31;2.50;;;2.20;;
2111;SDS011;1062;52.538;13.400;2023-05-07T11:07:24;1.70;;;1.60;;
2111;SDS011;1062;52.538;13.400;2023-05-07T11:15:06;2.10;;;1.90;;
2111;SDS011;1062;52.538;13.400;2023-05-07T11:17:35;4.73;;;2.03;;
2111;SDS011;1062;52.538;13.400;2023-05-07T11:20:20;4.20;;;1.80;;
2111;SDS011;1062;52.538;13.400;2023-05-07T11:23:06;3.60;;;2.00;;
2111;SDS011;1062;52.538;13.400;2023-05-07T11:25:32;2.60;;;2.40;;
2111;SDS011;1062;52.538;13.400;2023-05-07T11:28:03;2.40;;;1.67;;
2111;SDS011;1062;52.538;13.400;2023-05-07T11:30:35;2.60;;;1.93;;
2111;SDS011;1062;52.538;13.400;2023-05-07T11:33:01;2.60;;;2.13;;
2111;SDS011;1062;52.538;13.400;2023-05-07T11:35:27;1.90;;;1.73;;
2111;SDS011;1062;52.538;13.400;2023-05-07T11:37:57;1.70;;;1.60;;
2111;SDS011;1062;52.538;13.400;2023-05-07T11:40:25;2.17;;;1.97;;
2111;SDS011;1062;52.538;13.400;2023-05-07T11:42:50;2.00;;;1.80;;
2111;SDS011;1062;52.538;13.400;2023-05-07T11:45:22;2.60;;;1.30;;
2111;SDS011;1062;52.538;13.400;2023-05-07T11:47:50;3.40;;;2.00;;
2111;SDS011;1062;52.538;13.400;2023-05-07T11:50:15;1.97;;;1.70;;
2111;SDS011;1062;52.538;13.400;2023-05-07T11:52:49;1.93;;;1.73;;
2111;SDS011;1062;52.538;13.400;2023-05-07T11:55:17;1.67;;;1.57;;
2111;SDS011;1062;52.538;13.400;2023-05-07T11:57:43;2.50;;;2.30;;
2111;SDS011;1062;52.538;13.400;2023-05-07T12:00:10;2.60;;;1.77;;
2111;SDS011;1062;52.538;13.400;2023-05-07T12:02:36;1.60;;;1.50;;
2111;SDS011;1062;52.538;13.400;2023-05-07T12:05:01;1.67;;;1.57;;
2111;SDS011;1062;52.538;13.400;2023-05-07T12:07:27;2.50;;;1.80;;
2111;SDS011;1062;52.538;13.400;2023-05-07T12:09:53;2.83;;;1.60;;
2111;SDS011;1062;52.538;13.400;2023-05-07T12:12:19;1.77;;;1.63;;
2111;SDS011;1062;52.538;13.400;2023-05-07T12:14:45;1.80;;;1.70;;
2111;SDS011;1062;52.538;13.400;2023-05-07T12:17:11;2.10;;;1.73;;
2111;SDS011;1062;52.538;13.400;2023-05-07T12:19:38;1.60;;;1.50;;
2111;SDS011;1062;52.538;13.400;2023-05-07T12:22:05;2.23;;;2.00;;
2111;SDS011;1062;52.538;13.400;2023-05-07T12:24:45;2.43;;;1.70;;
2111;SDS011;1062;52.538;13.400;2023-05-07T12:27:13;1.87;;;1.77;;
2111;SDS011;1062;52.538;13.400;2023-05-07T12:29:39;3.87;;;1.80;;
2111;SDS011;1062;52.538;13.400;2023-05-07T12:32:06;1.63;;;1.50;;
2111;SDS011;1062;52.538;13.400;2023-05-07T12:34:37;1.57;;;1.47;;
2111;SDS011;1062;52.538;13.400;2023-05-07T12:37:04;1.37;;;1.27;;
2111;SDS011;1062;52.538;13.400;2023-05-07T12:39:30;2.20;;;1.10;;
2111;SDS011;1062;52.538;13.400;2023-05-07T12:41:58;2.47;;;2.03;;
2111;SDS011;1062;52.538;13.400;2023-05-07T12:44:34;2.10;;;1.70;;
2111;SDS011;1062;52.538;13.400;2023-05-07T12:47:03;2.60;;;1.47;;
2111;SDS011;1062;52.538;13.400;2023-05-07T12:49:28;2.00;;;1.53;;
2111;SDS011;1062;52.538;13.400;2023-05-07T12:51:54;1.77;;;1.63;;
2111;SDS011;1062;52.538;13.400;2023-05-07T12:54:27;2.17;;;1.60;;
2111;SDS011;1062;52.538;13.400;2023-05-07T12:57:02;2.13;;;1.93;;
2111;SDS011;1062;52.538;13.400;2023-05-07T12:59:40;1.87;;;1.67;;
2111;SDS011;1062;52.538;13.400;2023-05-07T13:02:07;1.40;;;1.30;;
2111;SDS011;1062;52.538;13.400;2023-05-07T13:04:33;2.53;;;1.80;;
2111;SDS011;1062;52.538;13.400;2023-05-07T13:06:59;2.13;;;1.57;;
2111;SDS011;1062;52.538;13.400;2023-05-07T13:09:26;1.40;;;1.30;;
2111;SDS011;1062;52.538;13.400;2023-05-07T13:11:53;1.70;;;1.40;;
2111;SDS011;1062;52.538;13.400;2023-05-07T13:14:18;2.03;;;1.50;;
2111;SDS011;1062;52.538;13.400;2023-05-07T13:16:45;1.50;;;1.40;;
2111;SDS011;1062;52.538;13.400;2023-05-07T13:19:14;2.47;;;1.63;;
2111;SDS011;1062;52.538;13.400;2023-05-07T13:21:39;1.93;;;1.77;;
2111;SDS011;1062;52.538;13.400;2023-05-07T13:24:05;2.00;;;1.80;;
2111;SDS011;1062;52.538;13.400;2023-05-07T13:26:31;3.13;;;1.37;;
2111;SDS011;1062;52.538;13.400;2023-05-07T13:28:57;2.27;;;1.87;;
2111;SDS011;1062;52.538;13.400;2023-05-07T13:31:23;1.77;;;1.67;;
2111;SDS011;1062;52.538;13.400;2023-05-07T13:33:49;2.23;;;1.43;;
2111;SDS011;1062;52.538;13.400;2023-05-07T13:36:15;1.70;;;1.60;;
2111;SDS011;1062;52.538;13.400;2023-05-07T13:38:41;3.53;;;1.60;;
2111;SDS011;1062;52.538;13.400;2023-05-07T13:41:06;2.33;;;2.13;;
2111;SDS011;1062;52.538;13.400;2023-05-07T13:43:32;2.50;;;1.50;;
2111;SDS011;1062;52.538;13.400;2023-05-07T13:45:58;2.40;;;1.93;;
2111;SDS011;1062;52.538;13.400;2023-05-07T13:48:24;1.33;;;1.23;;
2111;SDS011;1062;52.538;13.400;2023-05-07T13:50:50;1.93;;;1.83;;
2111;SDS011;1062;52.538;13.400;2023-05-07T13:53:16;2.50;;;1.97;;
2111;SDS011;1062;52.538;13.400;2023-05-07T13:55:43;2.60;;;1.30;;
2111;SDS011;1062;52.538;13.400;2023-05-07T13:58:09;1.63;;;1.43;;
2111;SDS011;1062;52.538;13.400;2023-05-07T14:00:34;2.80;;;1.67;;
2111;SDS011;1062;52.538;13.400;2023-05-07T14:03:00;1.40;;;1.30;;
2111;SDS011;1062;52.538;13.400;2023-05-07T14:05:26;2.00;;;1.67;;
2111;SDS011;1062;52.538;13.400;2023-05-07T14:07:53;1.40;;;1.30;;
2111;SDS011;1062;52.538;13.400;2023-05-07T14:10:20;1.57;;;1.40;;
2111;SDS011;1062;52.538;13.400;2023-05-07T14:12:46;1.70;;;1.60;;
2111;SDS011;1062;52.538;13.400;2023-05-07T14:15:12;2.07;;;1.87;;
2111;SDS011;1062;52.538;13.400;2023-05-07T14:17:38;1.90;;;1.70;;
2111;SDS011;1062;52.538;13.400;2023-05-07T14:20:03;1.70;;;1.60;;
2111;SDS011;1062;52.538;13.400;2023-05-07T14:22:31;3.70;;;1.53;;
2111;SDS011;1062;52.538;13.400;2023-05-07T14:24:56;2.23;;;2.03;;
2111;SDS011;1062;52.538;13.400;2023-05-07T14:27:22;2.10;;;1.90;;
2111;SDS011;1062;52.538;13.400;2023-05-07T14:29:48;5.63;;;1.90;;
2111;SDS011;1062;52.538;13.400;2023-05-07T14:32:16;1.40;;;1.30;;
2111;SDS011;1062;52.538;13.400;2023-05-07T14:34:43;2.63;;;1.43;;
2111;SDS011;1062;52.538;13.400;2023-05-07T14:37:09;2.33;;;1.43;;
2111;SDS011;1062;52.538;13.400;2023-05-07T14:39:35;1.40;;;1.30;;
2111;SDS011;1062;52.538;13.400;2023-05-07T14:42:01;2.73;;;1.73;;
2111;SDS011;1062;52.538;13.400;2023-05-07T14:44:26;1.67;;;1.47;;
2111;SDS011;1062;52.538;13.400;2023-05-07T14:46:52;1.60;;;1.47;;
2111;SDS011;1062;52.538;13.400;2023-05-07T14:49:18;3.37;;;2.73;;
2111;SDS011;1062;52.538;13.400;2023-05-07T14:51:44;1.43;;;1.20;;
2111;SDS011;1062;52.538;13.400;2023-05-07T14:54:10;1.30;;;1.20;;
2111;SDS011;1062;52.538;13.400;2023-05-07T14:56:36;1.43;;;1.33;;
2111;SDS011;1062;52.538;13.400;2023-05-07T14:59:02;1.20;;;1.10;;
2111;SDS011;1062;52.538;13.400;2023-05-07T15:01:28;1.60;;;1.50;;
2111;SDS011;1062;52.538;13.400;2023-05-07T15:03:54;1.80;;;1.60;;
2111;SDS011;1062;52.538;13.400;2023-05-07T15:06:20;1.67;;;1.40;;
2111;SDS011;1062;52.538;13.400;2023-05-07T15:08:46;1.70;;;1.33;;